createdAt,value
2019-05-15T00:01:02.480Z,9.42
2019-05-15T00:06:08.465Z,9.35
2019-05-15T00:11:13.324Z,9.41
2019-05-15T00:16:18.190Z,9.51
2019-05-15T00:21:22.683Z,9.42
2019-05-15T00:26:27.375Z,9.24
2019-05-15T00:31:32.042Z,9.25
2019-05-15T00:36:38.285Z,9.23
2019-05-15T00:41:53.316Z,9.22
2019-05-15T00:46:49.219Z,9.18
2019-05-15T00:51:53.984Z,8.98
2019-05-15T00:56:58.690Z,9.06
2019-05-15T01:02:03.252Z,8.98
2019-05-15T01:07:08.425Z,8.98
2019-05-15T01:12:14.021Z,9.08
2019-05-15T01:17:18.669Z,9.19
2019-05-15T01:22:23.247Z,9.17
2019-05-15T01:27:29.176Z,9.21
2019-05-15T01:32:33.818Z,9.21
2019-05-15T01:37:39.454Z,9.24
2019-05-15T01:42:44.117Z,9.22
2019-05-15T01:47:49.361Z,9.23
2019-05-15T01:52:53.941Z,9.35
2019-05-15T01:57:58.584Z,9.40
2019-05-15T02:03:03.244Z,9.39
2019-05-15T02:08:09.098Z,9.23
2019-05-15T02:13:14.232Z,9.25
2019-05-15T02:18:19.275Z,9.19
2019-05-15T02:23:24.127Z,9.27
2019-05-15T02:28:29.009Z,9.27
2019-05-15T02:33:33.694Z,9.23
2019-05-15T02:38:41.005Z,9.19
2019-05-15T02:43:44.709Z,9.26
2019-05-15T02:48:49.355Z,9.28
2019-05-15T02:53:54.063Z,9.32
2019-05-15T02:59:00.043Z,9.37
2019-05-15T03:04:04.915Z,9.43
2019-05-15T03:09:10.434Z,9.44
2019-05-15T03:14:15.080Z,9.23
2019-05-15T03:19:19.709Z,9.26
2019-05-15T03:24:28.653Z,9.18
2019-05-15T03:29:31.684Z,9.35
2019-05-15T03:34:44.764Z,9.43
2019-05-15T03:39:46.491Z,9.56
2019-05-15T03:44:50.223Z,9.37
2019-05-15T03:49:55.055Z,9.45
2019-05-15T03:54:59.684Z,9.51
2019-05-15T04:00:09.359Z,9.36
2019-05-15T04:05:12.553Z,9.16
2019-05-15T04:10:19.956Z,9.27
2019-05-15T04:15:23.599Z,9.47
2019-05-15T04:20:29.770Z,9.43
2019-05-15T04:25:34.967Z,9.31
2019-05-15T04:30:39.590Z,9.34
2019-05-15T04:35:44.252Z,9.30
2019-05-15T04:40:50.037Z,9.39
2019-05-15T04:45:54.811Z,9.32
2019-05-15T04:50:59.497Z,9.32
2019-05-15T04:56:04.202Z,9.42
2019-05-15T05:01:09.733Z,9.58
2019-05-15T05:06:18.970Z,9.89
2019-05-15T05:11:24.179Z,9.93
2019-05-15T05:16:29.520Z,10.40
2019-05-15T05:21:34.313Z,10.77
2019-05-15T05:26:38.907Z,10.68
2019-05-15T05:31:44.810Z,11.14
2019-05-15T05:36:49.592Z,11.43
2019-05-15T05:41:54.541Z,11.74
2019-05-15T05:46:59.391Z,11.42
2019-05-15T05:52:04.171Z,11.60
2019-05-15T05:57:09.213Z,11.78
2019-05-15T06:02:15.021Z,11.55
2019-05-15T06:07:19.785Z,11.54
2019-05-15T06:12:24.748Z,11.66
2019-05-15T06:17:29.309Z,11.96
2019-05-15T06:22:33.844Z,11.80
2019-05-15T06:27:39.204Z,11.78
2019-05-15T06:33:01.879Z,12.03
2019-05-15T06:37:51.451Z,12.50
2019-05-15T06:42:56.094Z,12.25
2019-05-15T06:48:01.621Z,12.09
2019-05-15T06:53:10.127Z,12.25
2019-05-15T06:58:13.092Z,13.25
2019-05-15T07:03:24.771Z,13.47
2019-05-15T07:08:23.987Z,13.82
2019-05-15T07:13:29.159Z,14.29
2019-05-15T07:18:33.853Z,13.91
2019-05-15T07:23:38.859Z,13.72
2019-05-15T07:28:43.809Z,13.54
2019-05-15T07:33:49.284Z,13.36
2019-05-15T07:38:54.112Z,13.34
2019-05-15T07:43:58.784Z,13.90
2019-05-15T07:49:03.419Z,15.35
2019-05-15T07:54:09.116Z,15.62
2019-05-15T07:59:13.993Z,15.40
2019-05-15T08:04:26.178Z,14.84
2019-05-15T08:09:24.746Z,14.44
2019-05-15T08:14:29.301Z,14.99
2019-05-15T08:19:33.997Z,14.94
2019-05-15T08:24:39.137Z,14.93
2019-05-15T08:29:44.281Z,14.46
2019-05-15T08:34:48.916Z,13.04
2019-05-15T08:39:53.556Z,13.22
2019-05-15T08:44:58.764Z,13.35
2019-05-15T08:50:04.225Z,13.53
2019-05-15T08:55:09.190Z,13.67
2019-05-15T09:00:15.018Z,13.52
2019-05-15T09:05:19.858Z,13.93
2019-05-15T09:10:24.466Z,14.15
2019-05-15T09:15:29.430Z,14.89
2019-05-15T09:20:34.219Z,16.03
2019-05-15T09:25:39.111Z,16.61
2019-05-15T09:30:43.752Z,16.49
2019-05-15T09:35:49.003Z,15.65
2019-05-15T09:40:54.040Z,15.83
2019-05-15T09:45:58.586Z,17.76
2019-05-15T09:51:03.191Z,17.76
2019-05-15T09:56:08.163Z,18.47
2019-05-15T10:01:13.060Z,18.73
2019-05-15T10:06:20.538Z,19.79
2019-05-15T10:11:24.027Z,18.60
2019-05-15T10:16:28.827Z,18.01
2019-05-15T10:21:33.492Z,17.57
2019-05-15T10:26:39.263Z,16.43
2019-05-15T10:31:44.243Z,16.85
2019-05-15T10:36:49.503Z,16.48
2019-05-15T10:41:54.355Z,16.25
2019-05-15T10:46:58.986Z,16.18
2019-05-15T10:52:04.718Z,17.23
2019-05-15T10:57:09.310Z,17.23
2019-05-15T11:02:13.889Z,17.82
2019-05-15T11:07:19.416Z,18.19
2019-05-15T11:12:25.300Z,18.18
2019-05-15T11:17:31.615Z,18.19
2019-05-15T11:22:39.069Z,17.36
2019-05-15T11:27:42.709Z,17.19
2019-05-15T11:32:48.719Z,17.33
2019-05-15T18:29:08.991Z,13.09
2019-05-15T18:34:12.591Z,13.08
2019-05-15T18:39:17.288Z,13.06
2019-05-15T18:44:21.960Z,13.00
2019-05-15T18:49:28.521Z,13.01
2019-05-15T18:54:33.473Z,13.01
2019-05-15T18:59:38.191Z,12.97
2019-05-15T19:04:42.777Z,12.94
2019-05-15T19:09:48.411Z,12.87
2019-05-15T19:14:53.779Z,12.74
2019-05-15T19:19:58.808Z,12.59
2019-05-15T19:25:04.534Z,12.45
2019-05-15T19:30:09.687Z,12.31
2019-05-15T19:35:14.828Z,12.17
2019-05-15T19:40:19.851Z,11.99
2019-05-15T19:45:25.538Z,11.88
2019-05-15T19:50:33.048Z,11.79
2019-05-15T19:55:37.760Z,11.64
2019-05-15T20:00:42.583Z,11.65
2019-05-15T20:05:48.599Z,11.59
2019-05-15T20:10:53.589Z,11.51
2019-05-15T20:15:58.274Z,11.28
2019-05-15T20:21:02.898Z,11.01
2019-05-15T20:26:08.416Z,11.08
2019-05-15T20:31:13.676Z,11.06
2019-05-15T20:36:18.434Z,11.15
2019-05-15T20:41:24.363Z,11.14
2019-05-15T20:46:29.130Z,11.21
2019-05-15T20:51:35.850Z,11.20
2019-05-15T20:56:40.189Z,11.16
2019-05-15T21:01:44.742Z,11.16
2019-05-15T21:06:49.363Z,11.07
2019-05-15T21:11:53.929Z,11.02
2019-05-15T21:16:59.143Z,11.02
2019-05-15T21:22:04.005Z,10.95
2019-05-15T21:27:08.725Z,10.89
2019-05-15T21:32:13.421Z,10.81
2019-05-15T21:37:18.721Z,10.78
2019-05-15T21:42:23.658Z,10.75
2019-05-15T21:47:28.957Z,10.74
2019-05-15T21:52:34.787Z,10.70
2019-05-15T21:57:42.590Z,10.73
2019-05-15T22:02:45.960Z,10.69
2019-05-15T22:07:51.212Z,10.63
2019-05-15T22:12:58.708Z,10.62
2019-05-15T22:18:03.001Z,10.64
2019-05-15T22:23:08.320Z,10.61
2019-05-15T22:28:12.991Z,10.69
2019-05-15T22:33:17.973Z,10.59
2019-05-15T22:38:22.584Z,10.66
2019-05-15T22:43:28.819Z,10.60
2019-05-15T22:48:33.605Z,10.56
2019-05-15T22:53:38.414Z,10.53
2019-05-15T22:58:43.064Z,10.43
2019-05-15T23:03:47.963Z,10.51
2019-05-15T23:08:52.820Z,10.52
2019-05-15T23:13:58.684Z,10.54
2019-05-15T23:19:03.416Z,10.58
2019-05-15T23:24:08.626Z,10.50
2019-05-15T23:29:13.309Z,10.28
2019-05-15T23:34:18.659Z,10.28
2019-05-15T23:39:23.476Z,10.22
2019-05-15T23:44:28.056Z,10.21
2019-05-15T23:49:32.637Z,10.41
2019-05-15T23:54:38.556Z,10.59
2019-05-15T23:59:43.205Z,10.75
